createdAt,value
2023-01-29T00:02:14.967Z,15.90
2023-01-29T00:04:41.812Z,14.27
2023-01-29T00:07:08.627Z,15.35
2023-01-29T00:09:35.587Z,15.10
2023-01-29T00:12:02.582Z,13.98
2023-01-29T00:14:29.428Z,15.27
2023-01-29T00:16:56.370Z,15.32
2023-01-29T00:19:23.247Z,15.20
2023-01-29T00:21:50.018Z,15.18
2023-01-29T00:24:16.919Z,15.80
2023-01-29T00:26:43.907Z,14.50
2023-01-29T00:29:11.384Z,15.43
2023-01-29T00:31:38.734Z,14.50
2023-01-29T00:34:07.326Z,14.43
2023-01-29T00:36:34.122Z,14.35
2023-01-29T00:39:02.515Z,13.55
2023-01-29T00:41:51.281Z,13.73
2023-01-29T00:44:36.995Z,12.85
2023-01-29T00:47:25.616Z,12.60
2023-01-29T00:49:52.808Z,11.85
2023-01-29T00:52:25.528Z,12.05
2023-01-29T00:54:54.393Z,12.10
2023-01-29T00:57:22.916Z,13.02
2023-01-29T00:59:50.037Z,12.65
2023-01-29T01:02:36.174Z,11.98
2023-01-29T01:05:07.551Z,12.80
2023-01-29T01:07:34.510Z,12.55
2023-01-29T01:10:19.693Z,11.70
2023-01-29T01:13:07.246Z,12.77
2023-01-29T01:15:39.844Z,12.40
2023-01-29T01:18:06.895Z,12.18
2023-01-29T01:20:36.126Z,12.95
2023-01-29T01:23:04.290Z,13.07
2023-01-29T01:25:31.268Z,12.27
2023-01-29T01:30:27.712Z,11.77
2023-01-29T01:32:55.803Z,12.15
2023-01-29T01:35:22.652Z,12.30
2023-01-29T01:37:49.584Z,11.77
2023-01-29T01:40:25.888Z,12.80
2023-01-29T01:42:58.721Z,11.73
2023-01-29T01:45:32.587Z,11.60
2023-01-29T01:48:26.388Z,11.85
2023-01-29T01:51:03.339Z,11.60
2023-01-29T01:53:34.888Z,12.07
2023-01-29T01:56:08.639Z,11.98
2023-01-29T01:58:55.360Z,11.85
2023-01-29T02:01:27.983Z,11.73
2023-01-29T02:04:42.320Z,11.20
2023-01-29T02:07:33.844Z,12.18
2023-01-29T02:10:15.730Z,11.07
2023-01-29T02:12:45.655Z,11.82
2023-01-29T02:15:13.899Z,12.13
2023-01-29T02:17:40.905Z,11.50
2023-01-29T02:20:18.205Z,12.32
2023-01-29T02:22:58.960Z,11.05
2023-01-29T02:26:14.676Z,11.07
2023-01-29T02:28:56.087Z,12.65
2023-01-29T02:31:46.960Z,12.07
2023-01-29T02:34:57.271Z,12.43
2023-01-29T02:37:36.055Z,11.70
2023-01-29T02:40:30.526Z,12.25
2023-01-29T02:43:22.461Z,12.88
2023-01-29T02:46:28.265Z,13.18
2023-01-29T02:49:23.384Z,12.10
2023-01-29T02:52:04.543Z,13.15
2023-01-29T02:54:44.188Z,12.85
2023-01-29T02:57:23.221Z,12.20
2023-01-29T03:00:03.889Z,13.13
2023-01-29T03:03:03.710Z,13.63
2023-01-29T03:05:58.765Z,13.32
2023-01-29T03:09:02.200Z,14.13
2023-01-29T03:11:39.726Z,15.15
2023-01-29T03:14:17.050Z,14.90
2023-01-29T03:16:53.660Z,14.85
2023-01-29T03:19:41.661Z,15.77
2023-01-29T03:22:21.830Z,17.58
2023-01-29T03:25:14.119Z,15.65
2023-01-29T03:28:16.790Z,15.98
2023-01-29T03:31:13.245Z,14.68
2023-01-29T03:33:54.367Z,15.60
2023-01-29T03:36:39.831Z,15.52
2023-01-29T03:39:09.403Z,16.15
2023-01-29T03:41:48.172Z,16.17
2023-01-29T03:44:30.660Z,16.80
2023-01-29T03:47:31.135Z,16.15
2023-01-29T03:50:18.038Z,15.38
2023-01-29T03:52:59.309Z,17.05
2023-01-29T03:55:58.304Z,17.50
2023-01-29T03:58:37.481Z,17.85
2023-01-29T04:01:16.898Z,18.80
2023-01-29T04:03:56.612Z,18.20
2023-01-29T04:06:33.340Z,19.05
2023-01-29T04:09:12.656Z,19.88
2023-01-29T04:11:48.724Z,17.17
2023-01-29T04:14:16.870Z,17.70
2023-01-29T04:17:00.095Z,17.63
2023-01-29T04:19:40.391Z,17.70
2023-01-29T04:22:45.992Z,19.05
2023-01-29T04:25:26.452Z,17.45
2023-01-29T04:28:18.880Z,18.10
2023-01-29T04:31:01.774Z,17.90
2023-01-29T04:33:57.245Z,17.55
2023-01-29T04:36:44.978Z,17.38
2023-01-29T04:39:32.144Z,16.70
2023-01-29T04:42:18.249Z,17.38
2023-01-29T04:44:53.368Z,17.35
2023-01-29T04:47:54.524Z,17.00
2023-01-29T04:50:40.218Z,16.33
2023-01-29T04:53:23.701Z,16.60
2023-01-29T04:56:19.064Z,16.88
2023-01-29T04:59:07.461Z,16.00
2023-01-29T05:01:37.851Z,16.08
2023-01-29T05:04:12.009Z,17.05
2023-01-29T05:06:40.524Z,16.98
2023-01-29T05:09:09.805Z,17.10
2023-01-29T05:11:37.580Z,16.23
2023-01-29T05:14:11.273Z,17.30
2023-01-29T05:16:49.458Z,17.42
2023-01-29T05:19:17.480Z,17.27
2023-01-29T05:21:49.045Z,17.60
2023-01-29T05:24:23.520Z,18.27
2023-01-29T05:27:12.058Z,17.33
2023-01-29T05:29:45.752Z,17.58
2023-01-29T05:32:13.100Z,16.42
2023-01-29T05:34:40.061Z,17.40
2023-01-29T05:37:07.186Z,16.27
2023-01-29T05:39:34.031Z,16.42
2023-01-29T05:42:00.884Z,16.45
2023-01-29T05:44:27.744Z,15.85
2023-01-29T05:46:54.599Z,17.08
2023-01-29T05:49:22.397Z,16.55
2023-01-29T05:51:49.290Z,17.05
2023-01-29T05:54:16.214Z,16.77
2023-01-29T05:56:43.194Z,16.58
2023-01-29T05:59:10.110Z,16.42
2023-01-29T06:01:37.335Z,16.90
2023-01-29T06:04:04.346Z,15.93
2023-01-29T06:06:31.139Z,16.60
2023-01-29T06:08:58.105Z,16.90
2023-01-29T06:11:24.982Z,17.48
2023-01-29T06:13:52.028Z,16.95
2023-01-29T06:16:18.847Z,16.85
2023-01-29T06:18:45.713Z,16.38
2023-01-29T06:21:13.890Z,17.25
2023-01-29T06:23:41.575Z,17.35
2023-01-29T06:26:13.682Z,18.05
2023-01-29T06:28:42.627Z,17.23
2023-01-29T06:31:30.455Z,17.30
2023-01-29T06:33:57.908Z,18.13
2023-01-29T06:36:24.756Z,17.52
2023-01-29T06:38:51.595Z,18.23
2023-01-29T06:41:25.077Z,18.33
2023-01-29T06:43:52.076Z,17.42
2023-01-29T06:46:18.884Z,16.92
2023-01-29T06:48:45.662Z,16.83
2023-01-29T06:51:12.435Z,17.38
2023-01-29T06:53:40.528Z,17.25
2023-01-29T06:56:08.727Z,17.88
2023-01-29T06:58:38.771Z,17.40
2023-01-29T07:01:19.663Z,17.33
2023-01-29T07:03:55.982Z,16.90
2023-01-29T07:06:31.119Z,18.65
2023-01-29T07:08:57.988Z,17.98
2023-01-29T07:11:24.849Z,16.92
2023-01-29T07:13:51.698Z,17.38
2023-01-29T07:16:19.192Z,17.33
2023-01-29T07:18:46.110Z,16.55
2023-01-29T07:21:12.893Z,16.48
2023-01-29T07:23:39.764Z,18.45
2023-01-29T07:26:07.438Z,18.00
2023-01-29T07:28:39.027Z,17.85
2023-01-29T07:31:06.793Z,17.70
2023-01-29T07:33:33.883Z,17.92
2023-01-29T07:36:00.792Z,18.65
2023-01-29T07:38:27.815Z,18.02
2023-01-29T07:40:55.042Z,17.05
2023-01-29T07:43:24.696Z,16.17
2023-01-29T07:45:52.065Z,16.77
2023-01-29T07:48:19.431Z,16.90
2023-01-29T07:50:55.048Z,17.70
2023-01-29T07:53:21.969Z,15.98
2023-01-29T07:55:48.803Z,16.67
2023-01-29T07:58:15.596Z,17.05
2023-01-29T08:00:42.456Z,16.85
2023-01-29T08:03:16.225Z,17.05
2023-01-29T08:05:44.689Z,15.80
2023-01-29T08:08:12.187Z,15.95
2023-01-29T08:10:41.216Z,16.77
2023-01-29T08:13:08.802Z,16.85
2023-01-29T08:15:38.910Z,16.88
2023-01-29T08:18:06.897Z,16.50
2023-01-29T08:20:33.883Z,16.55
2023-01-29T08:23:10.220Z,16.20
2023-01-29T08:25:37.381Z,16.42
2023-01-29T08:28:04.567Z,15.45
2023-01-29T08:30:34.428Z,16.73
2023-01-29T08:33:03.488Z,15.63
2023-01-29T08:35:30.692Z,15.27
2023-01-29T08:38:00.967Z,15.57
2023-01-29T08:40:31.626Z,16.00
2023-01-29T08:43:05.556Z,15.45
2023-01-29T08:45:36.382Z,15.65
2023-01-29T08:48:03.442Z,15.65
2023-01-29T08:50:31.787Z,15.40
2023-01-29T08:53:00.692Z,15.60
2023-01-29T08:55:28.930Z,14.50
2023-01-29T08:57:59.188Z,16.20
2023-01-29T09:00:26.268Z,15.13
2023-01-29T09:02:53.029Z,15.35
2023-01-29T09:05:20.376Z,15.93
2023-01-29T09:07:47.331Z,15.52
2023-01-29T09:10:14.091Z,15.60
2023-01-29T09:12:41.002Z,15.70
2023-01-29T09:15:08.729Z,16.35
2023-01-29T09:17:35.792Z,15.85
2023-01-29T09:20:05.985Z,15.82
2023-01-29T09:22:32.821Z,16.45
2023-01-29T09:24:59.740Z,16.70
2023-01-29T09:27:26.687Z,16.60
2023-01-29T09:29:53.565Z,16.10
2023-01-29T09:32:49.844Z,16.08
2023-01-29T09:35:08.024Z,14.77
2023-01-29T09:37:34.932Z,16.00
2023-01-29T09:40:01.734Z,16.50
2023-01-29T09:43:15.203Z,16.52
2023-01-29T09:46:13.316Z,16.23
2023-01-29T09:48:42.013Z,16.20
2023-01-29T09:51:30.336Z,16.33
2023-01-29T09:54:06.704Z,16.38
2023-01-29T09:56:34.633Z,16.45
2023-01-29T09:59:02.042Z,16.30
2023-01-29T10:01:38.555Z,16.52
2023-01-29T10:04:52.616Z,16.67
2023-01-29T10:08:02.150Z,17.05
2023-01-29T10:11:03.850Z,16.30
2023-01-29T10:13:55.695Z,17.65
2023-01-29T10:16:52.315Z,17.58
2023-01-29T10:19:56.220Z,16.80
2023-01-29T10:22:53.020Z,17.48
2023-01-29T10:25:22.237Z,18.48
2023-01-29T10:27:56.817Z,17.60
2023-01-29T10:30:38.418Z,18.13
2023-01-29T10:33:12.411Z,17.95
2023-01-29T10:35:49.573Z,18.35
2023-01-29T10:38:46.049Z,18.40
2023-01-29T10:42:13.124Z,17.70
2023-01-29T10:45:18.508Z,19.17
2023-01-29T10:47:54.501Z,18.38
2023-01-29T10:50:39.684Z,18.08
2023-01-29T10:53:42.031Z,19.23
2023-01-29T10:56:26.927Z,18.42
2023-01-29T10:59:09.124Z,19.90
2023-01-29T11:01:36.030Z,19.80
2023-01-29T11:04:06.539Z,19.35
2023-01-29T11:06:35.961Z,19.70
2023-01-29T11:09:09.733Z,19.08
2023-01-29T11:12:02.900Z,19.55
2023-01-29T11:14:56.755Z,19.25
2023-01-29T11:17:25.927Z,19.25
2023-01-29T11:19:58.144Z,19.13
2023-01-29T11:22:28.859Z,19.67
2023-01-29T11:25:17.821Z,19.08
2023-01-29T11:28:34.660Z,19.17
2023-01-29T11:31:02.539Z,20.33
2023-01-29T11:33:30.548Z,20.48
2023-01-29T11:35:58.910Z,19.65
2023-01-29T11:38:29.783Z,20.88
2023-01-29T11:41:14.289Z,21.67
2023-01-29T11:43:41.113Z,20.02
2023-01-29T11:46:15.856Z,21.52
2023-01-29T11:48:58.948Z,20.83
2023-01-29T11:51:34.133Z,20.50
2023-01-29T11:54:04.161Z,21.00
2023-01-29T11:56:42.606Z,20.45
2023-01-29T11:59:37.559Z,21.35
2023-01-29T12:02:32.219Z,21.30
2023-01-29T12:05:06.532Z,22.50
2023-01-29T12:07:34.492Z,22.45
2023-01-29T12:10:01.428Z,22.15
2023-01-29T12:12:37.992Z,23.50
2023-01-29T12:15:25.017Z,21.65
2023-01-29T12:18:17.551Z,22.48
2023-01-29T12:21:02.640Z,22.98
2023-01-29T12:24:21.475Z,22.67
2023-01-29T12:27:00.009Z,21.85
2023-01-29T12:30:04.276Z,22.67
2023-01-29T12:32:59.282Z,21.83
2023-01-29T12:35:53.293Z,22.08
2023-01-29T12:38:23.265Z,21.67
2023-01-29T12:41:08.437Z,23.48
2023-01-29T12:43:51.091Z,23.10
2023-01-29T12:46:53.025Z,24.02
2023-01-29T12:49:26.502Z,22.92
2023-01-29T12:52:13.505Z,22.42
2023-01-29T12:54:50.471Z,22.13
2023-01-29T12:57:49.723Z,22.08
2023-01-29T13:00:29.344Z,23.35
2023-01-29T13:03:20.544Z,23.00
2023-01-29T13:05:53.583Z,21.92
2023-01-29T13:08:53.623Z,23.10
2023-01-29T13:11:38.150Z,23.10
2023-01-29T13:14:28.964Z,23.40
2023-01-29T13:17:26.844Z,23.30
2023-01-29T13:20:03.877Z,22.38
2023-01-29T13:22:38.566Z,22.83
2023-01-29T13:25:11.509Z,22.58
2023-01-29T13:27:39.707Z,22.40
2023-01-29T13:30:07.880Z,21.23
2023-01-29T13:32:36.795Z,21.80
2023-01-29T13:35:14.022Z,22.05
2023-01-29T13:37:50.411Z,20.80
2023-01-29T13:40:27.602Z,22.55
2023-01-29T13:42:58.405Z,21.65
2023-01-29T13:45:33.821Z,20.88
2023-01-29T13:48:32.366Z,20.85
2023-01-29T13:51:15.433Z,20.08
2023-01-29T13:53:44.155Z,20.48
2023-01-29T13:56:32.873Z,21.05
2023-01-29T13:59:06.566Z,20.30
2023-01-29T14:01:48.745Z,20.35
2023-01-29T14:04:30.982Z,20.50
2023-01-29T14:06:59.361Z,19.55
2023-01-29T14:09:38.157Z,19.92
2023-01-29T14:12:25.561Z,20.17
2023-01-29T14:15:14.008Z,20.77
2023-01-29T14:17:54.723Z,19.38
2023-01-29T14:21:02.571Z,19.45
2023-01-29T14:23:42.735Z,20.23
2023-01-29T14:26:52.957Z,19.75
2023-01-29T14:29:35.416Z,18.90
2023-01-29T14:32:11.138Z,19.65
2023-01-29T14:35:17.817Z,19.55
2023-01-29T14:37:50.474Z,20.02
2023-01-29T14:40:20.471Z,20.88
2023-01-29T14:43:19.873Z,21.33
2023-01-29T14:45:50.254Z,18.83
2023-01-29T14:48:37.023Z,20.05
2023-01-29T14:51:12.710Z,19.10
2023-01-29T14:54:01.093Z,19.98
2023-01-29T14:56:44.189Z,19.25
2023-01-29T14:59:22.949Z,18.42
2023-01-29T15:01:57.775Z,19.35
2023-01-29T15:04:46.383Z,18.65
2023-01-29T15:07:30.061Z,19.63
2023-01-29T15:10:49.161Z,20.20
2023-01-29T15:13:47.864Z,19.13
2023-01-29T15:17:16.927Z,19.10
2023-01-29T15:19:49.240Z,17.70
2023-01-29T15:22:25.925Z,18.63
2023-01-29T15:25:13.233Z,18.60
2023-01-29T15:27:45.405Z,18.02
2023-01-29T15:30:22.061Z,18.38
2023-01-29T15:32:49.699Z,18.15
2023-01-29T15:35:35.922Z,17.20
2023-01-29T15:38:14.269Z,17.52
2023-01-29T15:40:41.182Z,17.65
2023-01-29T15:43:28.007Z,18.00
2023-01-29T15:46:01.465Z,18.00
2023-01-29T15:48:38.084Z,18.50
2023-01-29T15:51:16.832Z,17.95
2023-01-29T15:53:59.461Z,17.23
2023-01-29T15:56:38.862Z,18.63
2023-01-29T15:59:14.961Z,17.90
2023-01-29T16:01:42.741Z,18.00
2023-01-29T16:04:23.865Z,17.10
2023-01-29T16:06:54.316Z,17.48
2023-01-29T16:09:25.275Z,17.40
2023-01-29T16:11:54.596Z,17.85
2023-01-29T16:14:25.665Z,17.83
2023-01-29T16:16:53.805Z,16.88
2023-01-29T16:19:27.721Z,17.23
2023-01-29T16:22:03.293Z,16.83
2023-01-29T16:24:32.476Z,17.55
2023-01-29T16:27:14.803Z,17.88
2023-01-29T16:29:41.772Z,19.05
2023-01-29T16:32:10.079Z,17.27
2023-01-29T16:34:49.760Z,18.05
2023-01-29T16:37:30.387Z,17.23
2023-01-29T16:39:58.096Z,18.00
2023-01-29T16:42:35.944Z,19.42
2023-01-29T16:45:06.325Z,18.20
2023-01-29T16:47:43.302Z,18.35
2023-01-29T16:50:46.202Z,18.95
2023-01-29T16:53:24.440Z,19.33
2023-01-29T16:55:52.683Z,18.77
2023-01-29T16:58:24.477Z,18.77
2023-01-29T17:01:22.074Z,19.25
2023-01-29T17:04:13.087Z,20.15
2023-01-29T17:06:46.011Z,18.98
2023-01-29T17:09:32.934Z,18.92
2023-01-29T17:12:05.734Z,19.75
2023-01-29T17:14:34.277Z,18.40
2023-01-29T17:17:18.796Z,19.20
2023-01-29T17:19:45.624Z,20.83
2023-01-29T17:22:15.193Z,20.27
2023-01-29T17:24:42.610Z,19.27
2023-01-29T17:27:22.227Z,18.85
2023-01-29T17:29:49.347Z,19.70
2023-01-29T17:32:19.840Z,20.45
2023-01-29T17:34:46.969Z,19.85
2023-01-29T17:37:16.027Z,21.08
2023-01-29T17:39:43.888Z,21.38
2023-01-29T17:42:15.768Z,21.45
2023-01-29T17:44:43.246Z,20.25
2023-01-29T17:47:14.988Z,19.73
2023-01-29T17:49:42.783Z,22.17
2023-01-29T17:52:09.937Z,20.83
2023-01-29T17:54:37.049Z,21.63
2023-01-29T17:57:03.933Z,21.98
2023-01-29T17:59:34.223Z,22.25
2023-01-29T18:02:01.159Z,21.20
2023-01-29T18:04:28.020Z,22.88
2023-01-29T18:06:58.109Z,21.85
2023-01-29T18:09:25.525Z,22.10
2023-01-29T18:11:53.335Z,22.60
2023-01-29T18:14:20.503Z,21.80
2023-01-29T18:16:47.856Z,22.23
2023-01-29T18:19:23.352Z,22.08
2023-01-29T18:21:50.988Z,21.63
2023-01-29T18:24:18.691Z,21.20
2023-01-29T18:26:45.596Z,21.38
2023-01-29T18:29:12.666Z,20.45
2023-01-29T18:31:39.525Z,21.95
2023-01-29T18:34:06.369Z,21.45
2023-01-29T18:36:33.345Z,20.50
2023-01-29T18:39:00.343Z,20.35
2023-01-29T18:41:27.269Z,20.05
2023-01-29T18:43:54.259Z,21.30
2023-01-29T18:46:22.277Z,21.27
2023-01-29T18:48:49.119Z,21.83
2023-01-29T18:51:15.943Z,21.05
2023-01-29T18:53:42.694Z,19.60
2023-01-29T18:56:10.555Z,19.70
2023-01-29T18:58:37.442Z,20.70
2023-01-29T19:01:11.548Z,21.55
2023-01-29T19:03:40.727Z,21.42
2023-01-29T19:06:10.942Z,20.30
2023-01-29T19:08:38.634Z,19.38
2023-01-29T19:11:08.081Z,20.40
2023-01-29T19:13:36.776Z,18.63
2023-01-29T19:16:08.203Z,18.63
2023-01-29T19:18:35.344Z,19.35
2023-01-29T19:21:08.623Z,19.98
2023-01-29T19:23:35.444Z,19.05
2023-01-29T19:26:02.344Z,20.90
2023-01-29T19:28:29.216Z,20.15
2023-01-29T19:30:59.960Z,20.90
2023-01-29T19:33:27.877Z,19.35
2023-01-29T19:35:59.661Z,20.95
2023-01-29T19:38:26.783Z,17.65
2023-01-29T19:40:55.175Z,20.17
2023-01-29T19:43:22.148Z,20.20
2023-01-29T19:45:50.872Z,19.73
2023-01-29T19:48:21.840Z,19.77
2023-01-29T19:50:58.428Z,19.80
2023-01-29T19:53:27.931Z,19.80
2023-01-29T19:56:07.203Z,20.70
2023-01-29T19:58:35.281Z,20.90
2023-01-29T20:01:15.704Z,19.80
2023-01-29T20:03:45.440Z,20.85
2023-01-29T20:06:15.343Z,19.90
2023-01-29T20:08:42.292Z,21.52
2023-01-29T20:11:09.833Z,21.65
2023-01-29T20:13:36.717Z,20.02
2023-01-29T20:16:04.657Z,20.10
2023-01-29T20:18:32.170Z,20.30
2023-01-29T20:20:59.707Z,20.23
2023-01-29T20:23:37.322Z,20.77
2023-01-29T20:26:07.499Z,20.13
2023-01-29T20:28:35.029Z,20.38
2023-01-29T20:31:02.831Z,20.58
2023-01-29T20:33:29.840Z,21.60
2023-01-29T20:35:59.854Z,22.10
2023-01-29T20:38:33.862Z,19.55
2023-01-29T20:41:18.401Z,19.83
2023-01-29T20:43:47.017Z,22.35
2023-01-29T20:46:14.157Z,21.00
2023-01-29T20:48:41.906Z,20.02
2023-01-29T20:51:15.570Z,21.55
2023-01-29T20:53:45.424Z,20.50
2023-01-29T20:56:14.258Z,19.77
2023-01-29T20:58:41.295Z,17.45
2023-01-29T21:01:15.445Z,22.10
2023-01-29T21:03:42.768Z,19.92
2023-01-29T21:06:11.629Z,20.92
2023-01-29T21:08:40.035Z,21.40
2023-01-29T21:11:09.627Z,21.35
2023-01-29T21:13:37.264Z,20.90
2023-01-29T21:16:04.497Z,22.70
2023-01-29T21:18:32.160Z,21.92
2023-01-29T21:20:59.073Z,21.17
2023-01-29T21:23:25.929Z,22.33
2023-01-29T21:25:52.672Z,23.33
2023-01-29T21:28:19.625Z,22.67
2023-01-29T21:30:47.781Z,21.65
2023-01-29T21:33:14.629Z,22.20
2023-01-29T21:35:41.464Z,20.50
2023-01-29T21:38:08.287Z,20.63
2023-01-29T21:40:35.029Z,20.25
2023-01-29T21:43:15.260Z,20.38
2023-01-29T21:45:43.283Z,20.20
2023-01-29T21:48:11.932Z,21.75
2023-01-29T21:50:39.252Z,22.13
2023-01-29T21:53:06.183Z,22.15
2023-01-29T21:55:33.657Z,22.60
2023-01-29T21:58:00.609Z,23.70
2023-01-29T22:00:27.731Z,23.13
2023-01-29T22:02:54.643Z,22.20
2023-01-29T22:05:21.567Z,20.20
2023-01-29T22:07:49.298Z,19.42
2023-01-29T22:10:18.400Z,20.88
2023-01-29T22:12:46.361Z,20.63
2023-01-29T22:15:14.534Z,21.80
2023-01-29T22:17:42.196Z,20.60
2023-01-29T22:20:14.078Z,20.17
2023-01-29T22:22:41.159Z,19.10
2023-01-29T22:25:08.777Z,20.70
2023-01-29T22:27:35.686Z,20.90
2023-01-29T22:30:02.831Z,19.88
2023-01-29T22:32:32.605Z,19.00
2023-01-29T22:34:59.482Z,21.70
2023-01-29T22:37:26.326Z,21.58
2023-01-29T22:39:53.136Z,20.13
2023-01-29T22:42:20.705Z,20.38
2023-01-29T22:44:48.432Z,19.85
2023-01-29T22:47:15.765Z,17.20
2023-01-29T22:49:44.544Z,20.08
2023-01-29T22:52:11.736Z,18.65
2023-01-29T22:54:41.558Z,18.80
2023-01-29T22:57:14.048Z,19.00
2023-01-29T22:59:41.342Z,18.95
2023-01-29T23:02:09.138Z,19.00
2023-01-29T23:04:36.528Z,18.80
2023-01-29T23:07:05.724Z,16.77
2023-01-29T23:09:32.659Z,18.65
2023-01-29T23:11:59.553Z,17.30
2023-01-29T23:14:26.349Z,16.25
2023-01-29T23:16:53.251Z,18.27
2023-01-29T23:19:20.196Z,19.25
2023-01-29T23:21:46.943Z,17.77
2023-01-29T23:24:14.002Z,17.08
2023-01-29T23:26:59.456Z,17.85
2023-01-29T23:29:26.216Z,18.27
2023-01-29T23:31:53.047Z,18.30
2023-01-29T23:34:20.327Z,17.77
2023-01-29T23:36:47.349Z,19.77
2023-01-29T23:39:14.200Z,18.55
2023-01-29T23:41:41.019Z,17.17
2023-01-29T23:44:08.079Z,17.95
2023-01-29T23:46:35.037Z,17.75
2023-01-29T23:49:01.963Z,17.20
2023-01-29T23:51:28.981Z,15.15
2023-01-29T23:53:55.796Z,16.42
2023-01-29T23:56:23.052Z,17.77
2023-01-29T23:58:54.769Z,16.75
